createdAt,value
2022-11-28T00:01:37.717Z,100.00
2022-11-28T00:04:06.175Z,100.00
2022-11-28T00:06:39.984Z,100.00
2022-11-28T00:09:07.480Z,100.00
2022-11-28T00:11:34.305Z,100.00
2022-11-28T00:14:00.856Z,100.00
2022-11-28T00:16:27.406Z,100.00
2022-11-28T00:18:55.046Z,100.00
2022-11-28T00:21:22.012Z,100.00
2022-11-28T00:23:49.524Z,100.00
2022-11-28T00:26:20.622Z,100.00
2022-11-28T00:28:47.898Z,100.00
2022-11-28T00:31:16.394Z,100.00
2022-11-28T00:33:43.030Z,100.00
2022-11-28T00:36:10.712Z,100.00
2022-11-28T00:38:37.688Z,100.00
2022-11-28T00:41:06.823Z,100.00
2022-11-28T00:43:34.190Z,100.00
2022-11-28T00:46:00.814Z,100.00
2022-11-28T00:48:27.880Z,100.00
2022-11-28T00:50:55.049Z,100.00
2022-11-28T00:53:22.977Z,100.00
2022-11-28T00:55:49.546Z,100.00
2022-11-28T00:58:16.050Z,100.00
2022-11-28T01:00:42.712Z,100.00
2022-11-28T01:03:09.272Z,100.00
2022-11-28T01:05:41.473Z,100.00
2022-11-28T01:08:08.051Z,100.00
2022-11-28T01:10:34.664Z,100.00
2022-11-28T01:13:01.222Z,100.00
2022-11-28T01:15:27.886Z,100.00
2022-11-28T01:17:54.377Z,100.00
2022-11-28T01:20:21.049Z,100.00
2022-11-28T01:22:47.607Z,100.00
2022-11-28T01:25:14.142Z,100.00
2022-11-28T01:27:40.653Z,100.00
2022-11-28T01:30:07.846Z,100.00
2022-11-28T01:32:34.426Z,100.00
2022-11-28T01:35:00.951Z,100.00
2022-11-28T01:37:29.965Z,100.00
2022-11-28T01:39:56.741Z,100.00
2022-11-28T01:42:23.542Z,100.00
2022-11-28T01:44:49.976Z,100.00
2022-11-28T01:47:21.569Z,100.00
2022-11-28T01:49:50.654Z,100.00
2022-11-28T01:52:20.460Z,100.00
2022-11-28T01:54:52.336Z,100.00
2022-11-28T01:57:22.794Z,100.00
2022-11-28T02:00:04.426Z,100.00
2022-11-28T02:02:39.259Z,100.00
2022-11-28T02:05:06.725Z,100.00
2022-11-28T02:07:34.653Z,100.00
2022-11-28T02:10:04.368Z,100.00
2022-11-28T02:12:54.614Z,100.00
2022-11-28T02:15:32.813Z,100.00
2022-11-28T02:18:36.060Z,100.00
2022-11-28T02:21:12.678Z,100.00
2022-11-28T02:24:05.185Z,100.00
2022-11-28T02:26:50.229Z,100.00
2022-11-28T02:29:31.844Z,100.00
2022-11-28T02:32:57.952Z,100.00
2022-11-28T02:35:27.327Z,100.00
2022-11-28T02:38:03.001Z,100.00
2022-11-28T02:40:44.318Z,100.00
2022-11-28T02:43:50.080Z,100.00
2022-11-28T02:46:20.423Z,100.00
2022-11-28T02:48:55.465Z,100.00
2022-11-28T02:51:46.076Z,100.00
2022-11-28T02:54:15.708Z,100.00
2022-11-28T02:56:50.888Z,100.00
2022-11-28T02:59:46.353Z,100.00
2022-11-28T03:02:15.202Z,100.00
2022-11-28T03:04:56.234Z,100.00
2022-11-28T03:07:53.603Z,100.00
2022-11-28T03:10:37.260Z,100.00
2022-11-28T03:13:19.274Z,100.00
2022-11-28T03:16:05.305Z,100.00
2022-11-28T03:18:40.560Z,100.00
2022-11-28T03:21:17.824Z,100.00
2022-11-28T03:23:56.137Z,100.00
2022-11-28T03:26:47.140Z,100.00
2022-11-28T03:29:23.126Z,100.00
2022-11-28T03:31:55.542Z,100.00
2022-11-28T03:34:25.872Z,100.00
2022-11-28T03:37:00.070Z,100.00
2022-11-28T03:39:32.975Z,100.00
2022-11-28T03:42:10.133Z,100.00
2022-11-28T03:44:48.170Z,100.00
2022-11-28T03:47:15.143Z,100.00
2022-11-28T03:49:50.393Z,100.00
2022-11-28T03:52:25.310Z,100.00
2022-11-28T03:54:51.807Z,100.00
2022-11-28T03:57:24.531Z,100.00
2022-11-28T03:59:53.914Z,100.00
2022-11-28T04:02:47.926Z,100.00
2022-11-28T04:05:38.296Z,100.00
2022-11-28T04:08:18.392Z,100.00
2022-11-28T04:11:12.746Z,100.00
2022-11-28T04:14:06.698Z,100.00
2022-11-28T04:16:52.286Z,100.00
2022-11-28T04:19:56.059Z,100.00
2022-11-28T04:22:32.357Z,100.00
2022-11-28T04:25:04.063Z,100.00
2022-11-28T04:27:37.634Z,100.00
2022-11-28T04:30:06.914Z,100.00
2022-11-28T04:32:39.674Z,100.00
2022-11-28T04:35:19.533Z,100.00
2022-11-28T04:37:48.789Z,100.00
2022-11-28T04:40:17.984Z,100.00
2022-11-28T04:42:56.054Z,100.00
2022-11-28T04:45:30.933Z,100.00
2022-11-28T04:47:57.786Z,100.00
2022-11-28T04:50:29.880Z,100.00
2022-11-28T04:53:26.403Z,100.00
2022-11-28T04:55:58.717Z,100.00
2022-11-28T04:58:38.166Z,100.00
2022-11-28T05:01:09.037Z,100.00
2022-11-28T05:03:39.893Z,100.00
2022-11-28T05:06:09.592Z,100.00
2022-11-28T05:08:36.282Z,100.00
2022-11-28T05:11:02.894Z,100.00
2022-11-28T05:13:29.386Z,100.00
2022-11-28T05:15:56.011Z,100.00
2022-11-28T05:18:22.568Z,100.00
2022-11-28T05:20:49.069Z,100.00
2022-11-28T05:23:15.645Z,100.00
2022-11-28T05:25:42.126Z,100.00
2022-11-28T05:28:09.001Z,100.00
2022-11-28T05:30:35.532Z,100.00
2022-11-28T05:33:02.800Z,100.00
2022-11-28T05:35:29.441Z,100.00
2022-11-28T05:37:56.006Z,100.00
2022-11-28T05:40:22.801Z,100.00
2022-11-28T05:42:49.364Z,100.00
2022-11-28T05:45:15.918Z,100.00
2022-11-28T05:47:42.458Z,100.00
2022-11-28T05:50:09.262Z,100.00
2022-11-28T05:52:35.837Z,100.00
2022-11-28T05:55:02.351Z,100.00
2022-11-28T05:57:30.066Z,100.00
2022-11-28T05:59:57.405Z,100.00
2022-11-28T06:02:24.256Z,100.00
2022-11-28T06:04:50.855Z,100.00
2022-11-28T06:07:18.803Z,100.00
2022-11-28T06:09:45.632Z,100.00
2022-11-28T06:12:12.266Z,100.00
2022-11-28T06:14:38.840Z,100.00
2022-11-28T06:17:05.345Z,100.00
2022-11-28T06:19:31.906Z,100.00
2022-11-28T06:21:58.467Z,100.00
2022-11-28T06:24:24.945Z,100.00
2022-11-28T06:26:51.417Z,100.00
2022-11-28T06:29:17.923Z,100.00
2022-11-28T06:31:44.535Z,100.00
2022-11-28T06:34:13.052Z,100.00
2022-11-28T06:36:40.109Z,100.00
2022-11-28T06:39:06.747Z,100.00
2022-11-28T06:41:33.266Z,100.00
2022-11-28T06:43:59.929Z,100.00
2022-11-28T06:46:26.511Z,100.00
2022-11-28T06:48:53.442Z,100.00
2022-11-28T06:51:20.938Z,100.00
2022-11-28T06:53:47.781Z,100.00
2022-11-28T06:56:17.145Z,100.00
2022-11-28T06:58:45.102Z,100.00
2022-11-28T07:01:18.155Z,100.00
2022-11-28T07:03:45.533Z,100.00
2022-11-28T07:06:13.962Z,100.00
2022-11-28T07:08:41.337Z,100.00
2022-11-28T07:11:16.867Z,100.00
2022-11-28T07:13:45.853Z,100.00
2022-11-28T07:16:21.490Z,100.00
2022-11-28T07:18:48.488Z,100.00
2022-11-28T07:21:15.485Z,100.00
2022-11-28T07:23:43.033Z,100.00
2022-11-28T07:26:11.392Z,100.00
2022-11-28T07:28:37.877Z,100.00
2022-11-28T07:31:12.998Z,100.00
2022-11-28T07:33:41.334Z,100.00
2022-11-28T07:36:12.500Z,100.00
2022-11-28T07:38:39.009Z,100.00
2022-11-28T07:41:11.893Z,100.00
2022-11-28T07:43:39.496Z,100.00
2022-11-28T07:46:08.476Z,100.00
2022-11-28T07:48:35.700Z,100.00
2022-11-28T07:51:08.792Z,100.00
2022-11-28T07:53:35.910Z,100.00
2022-11-28T07:56:08.348Z,100.00
2022-11-28T07:58:36.138Z,100.00
2022-11-28T08:01:15.054Z,100.00
2022-11-28T08:03:42.165Z,100.00
2022-11-28T08:06:09.299Z,100.00
2022-11-28T08:08:36.073Z,100.00
2022-11-28T08:11:05.402Z,100.00
2022-11-28T08:13:32.288Z,100.00
2022-11-28T08:15:58.944Z,99.91
2022-11-28T08:18:25.495Z,99.62
2022-11-28T08:20:52.399Z,99.73
2022-11-28T08:23:18.954Z,99.56
2022-11-28T08:25:45.456Z,99.16
2022-11-28T08:28:11.962Z,98.75
2022-11-28T08:30:38.496Z,93.56
2022-11-28T08:33:05.035Z,92.28
2022-11-28T08:35:31.549Z,92.62
2022-11-28T08:38:01.848Z,93.16
2022-11-28T08:40:28.965Z,91.37
2022-11-28T08:42:55.853Z,92.00
2022-11-28T08:45:22.411Z,90.97
2022-11-28T08:47:48.997Z,92.76
2022-11-28T08:50:15.689Z,94.41
2022-11-28T08:52:42.231Z,94.65
2022-11-28T08:55:09.145Z,96.06
2022-11-28T08:57:35.783Z,95.64
2022-11-28T09:00:02.525Z,95.75
2022-11-28T09:02:29.049Z,96.24
2022-11-28T09:04:55.574Z,95.87
2022-11-28T09:07:22.210Z,95.50
2022-11-28T09:09:49.109Z,95.11
2022-11-28T09:12:16.241Z,94.56
2022-11-28T09:14:42.804Z,93.86
2022-11-28T09:17:09.463Z,93.88
2022-11-28T09:19:36.052Z,93.52
2022-11-28T09:22:02.532Z,91.36
2022-11-28T09:24:29.077Z,91.93
2022-11-28T09:26:55.717Z,92.11
2022-11-28T09:29:22.425Z,89.57
2022-11-28T09:31:48.977Z,89.22
2022-11-28T09:34:15.751Z,89.35
2022-11-28T09:36:42.337Z,89.70
2022-11-28T09:39:09.180Z,88.98
2022-11-28T09:41:42.052Z,87.78
2022-11-28T09:44:25.114Z,87.20
2022-11-28T09:46:55.845Z,88.25
2022-11-28T09:49:36.786Z,86.39
2022-11-28T09:52:22.100Z,85.78
2022-11-28T09:55:20.623Z,85.32
2022-11-28T09:57:49.638Z,86.29
2022-11-28T10:00:22.667Z,85.27
2022-11-28T10:03:28.207Z,85.92
2022-11-28T10:06:21.839Z,86.62
2022-11-28T10:09:09.872Z,85.22
2022-11-28T10:11:39.506Z,85.73
2022-11-28T10:14:20.989Z,85.65
2022-11-28T10:17:19.793Z,85.07
2022-11-28T10:20:00.469Z,84.10
2022-11-28T10:22:57.815Z,85.19
2022-11-28T10:25:42.693Z,84.53
2022-11-28T10:28:18.152Z,83.98
2022-11-28T10:30:51.329Z,84.61
2022-11-28T10:33:38.114Z,85.21
2022-11-28T10:36:05.225Z,84.99
2022-11-28T10:38:34.755Z,84.50
2022-11-28T10:41:14.575Z,84.15
2022-11-28T10:44:09.798Z,83.75
2022-11-28T10:47:02.516Z,82.76
2022-11-28T10:49:50.779Z,83.85
2022-11-28T10:52:26.363Z,83.65
2022-11-28T10:55:20.717Z,83.15
2022-11-28T10:57:47.182Z,82.36
2022-11-28T11:00:13.636Z,81.22
2022-11-28T11:02:49.844Z,81.73
2022-11-28T11:05:28.538Z,80.93
2022-11-28T11:07:58.633Z,81.22
2022-11-28T11:10:52.230Z,80.63
2022-11-28T11:13:23.564Z,81.05
2022-11-28T11:15:57.797Z,81.66
2022-11-28T11:18:35.020Z,82.07
2022-11-28T11:21:14.817Z,82.28
2022-11-28T11:23:41.850Z,82.68
2022-11-28T11:26:19.733Z,83.23
2022-11-28T11:28:49.031Z,82.61
2022-11-28T11:31:21.393Z,82.48
2022-11-28T11:33:51.642Z,82.36
2022-11-28T11:36:25.743Z,82.94
2022-11-28T11:38:59.854Z,82.41
2022-11-28T11:41:31.217Z,82.67
2022-11-28T11:44:25.189Z,82.62
2022-11-28T11:47:02.813Z,82.65
2022-11-28T11:49:41.706Z,83.02
2022-11-28T11:52:19.096Z,82.77
2022-11-28T11:54:54.347Z,83.87
2022-11-28T11:57:33.177Z,82.62
2022-11-28T12:00:26.849Z,82.54
2022-11-28T12:03:03.263Z,81.79
2022-11-28T12:06:06.158Z,81.25
2022-11-28T12:08:49.108Z,80.46
2022-11-28T12:11:24.488Z,80.66
2022-11-28T12:13:51.986Z,80.49
2022-11-28T12:16:29.817Z,80.56
2022-11-28T12:19:18.201Z,79.89
2022-11-28T12:22:07.053Z,80.42
2022-11-28T12:24:45.664Z,80.51
2022-11-28T12:27:18.384Z,80.02
2022-11-28T12:29:59.461Z,79.79
2022-11-28T12:33:01.321Z,80.53
2022-11-28T12:35:41.765Z,79.93
2022-11-28T12:38:23.529Z,79.76
2022-11-28T12:41:17.850Z,78.02
2022-11-28T12:44:11.859Z,78.94
2022-11-28T12:46:38.343Z,79.43
2022-11-28T12:49:25.962Z,77.95
2022-11-28T12:52:17.456Z,77.31
2022-11-28T12:55:19.293Z,77.58
2022-11-28T12:58:07.072Z,76.14
2022-11-28T13:00:49.951Z,76.45
2022-11-28T13:03:34.199Z,77.99
2022-11-28T13:06:34.545Z,77.36
2022-11-28T13:09:26.443Z,77.99
2022-11-28T13:12:29.905Z,78.24
2022-11-28T13:15:00.791Z,76.38
2022-11-28T13:17:52.060Z,76.72
2022-11-28T13:20:51.022Z,77.12
2022-11-28T13:23:52.172Z,77.76
2022-11-28T13:26:37.335Z,77.80
2022-11-28T13:29:18.284Z,78.53
2022-11-28T13:31:57.340Z,79.10
2022-11-28T13:34:29.245Z,79.62
2022-11-28T13:39:47.174Z,80.06
2022-11-28T13:43:02.215Z,79.79
2022-11-28T13:45:32.030Z,80.39
2022-11-28T13:48:00.346Z,80.40
2022-11-28T13:50:41.289Z,80.05
2022-11-28T13:53:08.147Z,80.67
2022-11-28T13:55:40.706Z,81.81
2022-11-28T13:58:29.636Z,81.07
2022-11-28T14:01:18.872Z,80.23
2022-11-28T14:04:01.292Z,80.43
2022-11-28T14:06:54.651Z,80.64
2022-11-28T14:09:53.806Z,81.72
2022-11-28T14:12:46.729Z,81.14
2022-11-28T14:15:19.285Z,82.18
2022-11-28T14:17:55.134Z,82.00
2022-11-28T14:20:42.939Z,82.12
2022-11-28T14:23:40.541Z,81.72
2022-11-28T14:26:23.384Z,81.72
2022-11-28T14:28:49.996Z,82.07
2022-11-28T14:31:25.204Z,82.14
2022-11-28T14:33:58.834Z,82.45
2022-11-28T14:36:29.876Z,82.93
2022-11-28T14:39:32.006Z,82.75
2022-11-28T14:42:51.964Z,83.40
2022-11-28T14:45:53.831Z,83.79
2022-11-28T14:48:30.666Z,84.22
2022-11-28T14:51:01.662Z,83.99
2022-11-28T14:53:44.627Z,84.42
2022-11-28T14:56:23.880Z,84.82
2022-11-28T14:58:55.013Z,84.46
2022-11-28T15:01:34.201Z,84.55
2022-11-28T15:04:35.342Z,85.03
2022-11-28T15:07:04.229Z,84.49
2022-11-28T15:09:37.978Z,85.56
2022-11-28T15:12:16.341Z,85.28
2022-11-28T15:14:47.243Z,86.11
2022-11-28T15:17:14.949Z,85.67
2022-11-28T15:19:48.185Z,86.46
2022-11-28T15:22:38.997Z,86.84
2022-11-28T15:25:18.298Z,86.92
2022-11-28T15:27:45.206Z,87.61
2022-11-28T15:30:17.751Z,87.18
2022-11-28T15:32:44.621Z,88.55
2022-11-28T15:35:18.764Z,88.67
2022-11-28T15:37:50.683Z,88.87
2022-11-28T15:40:24.010Z,89.29
2022-11-28T15:42:51.218Z,89.44
2022-11-28T15:45:17.773Z,88.88
2022-11-28T15:47:46.685Z,89.42
2022-11-28T15:50:13.161Z,89.71
2022-11-28T15:52:39.714Z,90.13
2022-11-28T15:55:19.941Z,91.29
2022-11-28T15:57:46.483Z,90.68
2022-11-28T16:00:18.804Z,90.44
2022-11-28T16:02:46.571Z,91.21
2022-11-28T16:05:22.217Z,91.13
2022-11-28T16:07:51.147Z,91.68
2022-11-28T16:10:37.842Z,92.63
2022-11-28T16:13:14.584Z,91.87
2022-11-28T16:15:49.914Z,92.38
2022-11-28T16:18:17.266Z,93.17
2022-11-28T16:20:44.021Z,92.87
2022-11-28T16:23:19.282Z,93.42
2022-11-28T16:25:46.985Z,93.89
2022-11-28T16:28:36.480Z,94.33
2022-11-28T16:31:11.018Z,93.73
2022-11-28T16:33:38.956Z,94.55
2022-11-28T16:36:31.043Z,95.23
2022-11-28T16:39:09.681Z,94.65
2022-11-28T16:41:37.949Z,94.31
2022-11-28T16:44:08.168Z,94.72
2022-11-28T16:46:53.389Z,94.19
2022-11-28T16:49:40.247Z,93.72
2022-11-28T16:52:21.757Z,93.29
2022-11-28T16:54:49.599Z,93.52
2022-11-28T16:57:16.731Z,93.65
2022-11-28T16:59:44.861Z,93.67
2022-11-28T17:02:22.949Z,93.83
2022-11-28T17:04:52.192Z,94.48
2022-11-28T17:07:23.938Z,94.74
2022-11-28T17:09:51.185Z,95.18
2022-11-28T17:12:26.065Z,95.10
2022-11-28T17:14:53.397Z,95.12
2022-11-28T17:17:21.407Z,95.37
2022-11-28T17:19:47.859Z,95.53
2022-11-28T17:22:18.028Z,95.85
2022-11-28T17:24:44.968Z,96.41
2022-11-28T17:27:13.033Z,96.34
2022-11-28T17:29:39.900Z,96.00
2022-11-28T17:32:06.744Z,96.30
2022-11-28T17:34:37.012Z,95.33
2022-11-28T17:37:05.119Z,95.54
2022-11-28T17:39:31.609Z,96.44
2022-11-28T17:41:58.969Z,95.83
2022-11-28T17:44:27.415Z,95.53
2022-11-28T17:46:55.429Z,95.53
2022-11-28T17:49:22.542Z,95.54
2022-11-28T17:51:49.993Z,95.73
2022-11-28T17:54:18.520Z,95.58
2022-11-28T17:56:46.156Z,95.48
2022-11-28T17:59:13.464Z,95.87
2022-11-28T18:01:40.561Z,95.12
2022-11-28T18:04:07.773Z,95.85
2022-11-28T18:06:34.471Z,96.55
2022-11-28T18:09:05.957Z,97.33
2022-11-28T18:11:35.889Z,97.66
2022-11-28T18:14:02.397Z,98.27
2022-11-28T18:16:30.214Z,98.70
2022-11-28T18:18:57.101Z,100.00
2022-11-28T18:21:24.986Z,100.00
2022-11-28T18:23:51.613Z,100.00
2022-11-28T18:26:20.948Z,100.00
2022-11-28T18:28:47.728Z,100.00
2022-11-28T18:31:24.007Z,100.00
2022-11-28T18:33:50.828Z,100.00
2022-11-28T18:36:23.213Z,100.00
2022-11-28T18:38:50.031Z,100.00
2022-11-28T18:41:17.764Z,100.00
2022-11-28T18:43:45.052Z,100.00
2022-11-28T18:46:14.701Z,100.00
2022-11-28T18:48:43.740Z,100.00
2022-11-28T18:51:17.555Z,100.00
2022-11-28T18:53:45.129Z,100.00
2022-11-28T18:56:13.012Z,100.00
2022-11-28T18:58:42.501Z,100.00
2022-11-28T19:01:10.183Z,100.00
2022-11-28T19:03:37.815Z,100.00
2022-11-28T19:06:06.209Z,100.00
2022-11-28T19:08:33.337Z,100.00
2022-11-28T19:11:04.417Z,100.00
2022-11-28T19:13:30.938Z,100.00
2022-11-28T19:15:57.429Z,100.00
2022-11-28T19:18:23.959Z,100.00
2022-11-28T19:20:50.550Z,100.00
2022-11-28T19:23:17.047Z,100.00
2022-11-28T19:25:44.354Z,100.00
2022-11-28T19:28:10.849Z,100.00
2022-11-28T19:30:37.325Z,100.00
2022-11-28T19:33:03.845Z,100.00
2022-11-28T19:35:30.405Z,100.00
2022-11-28T19:37:56.929Z,100.00
2022-11-28T19:40:23.546Z,100.00
2022-11-28T19:42:50.150Z,100.00
2022-11-28T19:45:16.828Z,100.00
2022-11-28T19:47:43.464Z,100.00
2022-11-28T19:50:10.415Z,100.00
2022-11-28T19:52:37.040Z,100.00
2022-11-28T19:55:03.706Z,100.00
2022-11-28T19:57:30.297Z,100.00
2022-11-28T19:59:56.786Z,100.00
2022-11-28T20:02:23.607Z,100.00
2022-11-28T20:04:50.249Z,100.00
2022-11-28T20:07:16.835Z,100.00
2022-11-28T20:09:43.736Z,100.00
2022-11-28T20:12:10.431Z,100.00
2022-11-28T20:14:37.000Z,100.00
2022-11-28T20:17:03.618Z,100.00
2022-11-28T20:19:30.178Z,100.00
2022-11-28T20:21:58.617Z,100.00
2022-11-28T20:24:25.204Z,100.00
2022-11-28T20:26:51.802Z,100.00
2022-11-28T20:29:19.097Z,100.00
2022-11-28T20:31:47.464Z,100.00
2022-11-28T20:34:15.045Z,100.00
2022-11-28T20:36:41.645Z,100.00
2022-11-28T20:39:09.527Z,100.00
2022-11-28T20:41:36.064Z,100.00
2022-11-28T20:44:03.255Z,100.00
2022-11-28T20:46:32.513Z,100.00
2022-11-28T20:49:02.190Z,100.00
2022-11-28T20:51:31.239Z,100.00
2022-11-28T20:53:59.226Z,100.00
2022-11-28T20:56:31.999Z,100.00
2022-11-28T20:59:01.800Z,100.00
2022-11-28T21:01:33.182Z,100.00
2022-11-28T21:04:04.257Z,100.00
2022-11-28T21:06:31.419Z,100.00
2022-11-28T21:08:58.069Z,100.00
2022-11-28T21:11:55.278Z,100.00
2022-11-28T21:14:15.185Z,100.00
2022-11-28T21:16:42.054Z,100.00
2022-11-28T21:19:09.522Z,100.00
2022-11-28T21:21:38.982Z,100.00
2022-11-28T21:24:08.636Z,100.00
2022-11-28T21:26:40.915Z,100.00
2022-11-28T21:29:10.838Z,100.00
2022-11-28T21:31:41.256Z,100.00
2022-11-28T21:34:07.882Z,100.00
2022-11-28T21:36:34.963Z,100.00
2022-11-28T21:39:01.669Z,100.00
2022-11-28T21:41:30.452Z,100.00
2022-11-28T21:43:57.776Z,100.00
2022-11-28T21:46:25.102Z,100.00
2022-11-28T21:48:52.038Z,100.00
2022-11-28T21:51:21.005Z,100.00
2022-11-28T21:53:47.617Z,100.00
2022-11-28T21:56:14.169Z,100.00
2022-11-28T21:58:40.793Z,100.00
2022-11-28T22:01:11.300Z,100.00
2022-11-28T22:03:39.443Z,100.00
2022-11-28T22:06:07.983Z,100.00
2022-11-28T22:08:35.331Z,100.00
2022-11-28T22:11:08.473Z,100.00
2022-11-28T22:13:35.889Z,100.00
2022-11-28T22:16:08.419Z,100.00
2022-11-28T22:18:35.087Z,100.00
2022-11-28T22:21:22.331Z,100.00
2022-11-28T22:23:53.033Z,100.00
2022-11-28T22:26:19.709Z,100.00
2022-11-28T22:28:53.179Z,100.00
2022-11-28T22:31:20.702Z,100.00
2022-11-28T22:33:49.186Z,100.00
2022-11-28T22:36:17.853Z,100.00
2022-11-28T22:38:45.953Z,100.00
2022-11-28T22:41:15.889Z,100.00
2022-11-28T22:43:42.449Z,100.00
2022-11-28T22:46:09.994Z,100.00
2022-11-28T22:48:38.017Z,100.00
2022-11-28T22:51:16.772Z,100.00
2022-11-28T22:53:43.736Z,100.00
2022-11-28T22:56:13.784Z,100.00
2022-11-28T22:58:43.445Z,100.00
2022-11-28T23:01:12.449Z,100.00
2022-11-28T23:03:39.141Z,100.00
2022-11-28T23:06:07.174Z,100.00
2022-11-28T23:08:34.656Z,100.00
2022-11-28T23:11:08.792Z,100.00
2022-11-28T23:13:36.401Z,100.00
2022-11-28T23:16:10.272Z,100.00
2022-11-28T23:18:36.801Z,100.00
2022-11-28T23:21:03.394Z,100.00
2022-11-28T23:23:33.949Z,100.00
2022-11-28T23:26:09.394Z,100.00
2022-11-28T23:28:37.210Z,100.00
2022-11-28T23:31:33.738Z,100.00
2022-11-28T23:34:01.077Z,100.00
2022-11-28T23:36:30.409Z,100.00
2022-11-28T23:38:59.589Z,100.00
2022-11-28T23:41:26.735Z,100.00
2022-11-28T23:43:53.398Z,100.00
2022-11-28T23:46:21.139Z,100.00
2022-11-28T23:48:48.596Z,100.00
2022-11-28T23:51:16.618Z,100.00
2022-11-28T23:53:43.886Z,100.00
2022-11-28T23:56:14.103Z,100.00
2022-11-28T23:58:42.080Z,100.00
